Etusivu
METAR-TAF:

METAR-TAF

Lentoasemat :

Vereeniging, Etelä-Afrikka

Leveyspiiri: 26-34-29S, Pituuspiiri: 027-57-45E, korkeus merenpinnasta: 1483 m

Tämänhetkinen sää

Tämä raportti tehtiin 44 minuuttia sitten, kello 06.00 UTC
tyyntä
Lämpötila 3°C
Kosteus 87%
Ilmanpaine 1033 hPa

METAR: FAVV 140600Z AUTO 00000KT //// // ////// 03/01 Q1033

Aika: 08:44 (06:44 UTC)


TAF: puuttuu

Säähavainnot ja -ennusteet yli 4000 lentoasemalta (METAR- ja TAF-raportit).

Käytössä olevat sääasemat on merkitty karttaan keltaisilla ja punaisilla pisteillä.

Aseta hiiri pisteen päälle nähdäksesi sääaseman nimen.

Klikkaa sitten nähdäksesi säähavainnot ja -ennusteet.

Kartan vaihtaminen: klikkaa mustalla rastilla varustettuja vihreitä pisteitä, niin voit zoomata sisään; viivalla varustettua vihreää pistettä, niin voit zoomata ulos tai vihreitä nuolia, niin pääset viereisille kartoille.


METAR-TAF: